Hauptseite
METAR-TAF:

METAR-TAF

Flughäfen :

St Athan, Wales

Breite: 51-24N, Länge: 003-26W, Höhe: 50 m

Beobachtung

Neuester Wetterbericht von vor 1 Stunde und 22 Minuten, um 14:50 UTC
Wind 13 kt aus West
Temperatur 18°C
Luftfeuchtigkeit 88%
Luftdruck 1014 hPa
Sichtweite 10 km oder mehr
Aufgelockert bewölkt in der Höhe von 1000 ft
Durchbrochene Bewölkung in der Höhe von 5000 ft

METAR: EGDX 161450Z 28013KT 9999 SCT010 BKN050 18/16 Q1014 GRN

Zeit: 17:12 (16:12 UTC)

Prognose

Neuester Wetterbericht von vor 2 Stunden und 49 Minuten, um 13:23 UTC
Gültige Prognose vom 16 um 15 UTC bis 16 um 18 UTC
Wind 13 kt aus West
Sichtweite 10 km oder mehr
Aufgelockert bewölkt in der Höhe von 4000 ft
Zeitweise
vom 16 um 15 UTC bis 16 um 16 UTC
Sichtweite: 6000 m
Aufgelockert bewölkt in der Höhe von 1200 ft
Regenschauer

TAF: EGDX 161323Z 1615/1618 27013KT 9999 SCT040 TEMPO 1615/1616 6000 SHRA SCT012

Wetterbeobachtungen und Prognosen von mehr als 4000 Flughäfen (METAR und TAF Bericht).

Die verfügbaren Stationen werden durch gelbe und rote Markierungen auf der Karte dargestellt.

Führen Sie die Maus auf sie, um den Namen der Station zu sehen.

Darauf klicken, um die Beobachtung von Wetterbeobachtungen und Prognosen zu sehen.

Um die Karte zu ändern : klicken Sie auf den grünen Tasten mit einem schwarzen Kreuz Zum Vergrößern, auf den grünen Button mit einem Gedankenstrich zu verkleinern, oder auf die grünen Pfeile für benachbarte Karten.


METAR-TAF: